createdAt,value
2019-03-21T00:01:04.578Z,81.90
2019-03-21T00:02:10.299Z,81.80
2019-03-21T00:03:15.917Z,81.70
2019-03-21T00:04:21.658Z,81.70
2019-03-21T00:05:29.287Z,82.00
2019-03-21T00:06:34.980Z,82.30
2019-03-21T00:07:40.535Z,82.30
2019-03-21T00:08:46.361Z,82.40
2019-03-21T00:10:11.091Z,82.60
2019-03-21T00:11:52.349Z,82.80
2019-03-21T00:12:58.040Z,82.60
2019-03-21T00:14:08.649Z,82.70
2019-03-21T00:15:24.953Z,82.90
2019-03-21T00:16:30.578Z,83.20
2019-03-21T00:17:38.988Z,83.40
2019-03-21T00:18:46.293Z,83.50
2019-03-21T00:19:51.883Z,83.40
2019-03-21T00:20:57.497Z,83.50
2019-03-21T00:22:03.084Z,83.40
2019-03-21T00:23:08.788Z,83.50
2019-03-21T00:24:14.340Z,83.40
2019-03-21T00:25:22.226Z,83.20
2019-03-21T00:26:27.930Z,83.00
2019-03-21T00:27:33.583Z,82.70
2019-03-21T00:28:40.904Z,83.00
2019-03-21T00:29:46.933Z,83.10
2019-03-21T00:30:52.592Z,83.70
2019-03-21T00:31:58.279Z,83.70
2019-03-21T00:33:03.978Z,83.80
2019-03-21T00:34:09.607Z,84.00
2019-03-21T00:35:15.899Z,84.40
2019-03-21T00:36:21.445Z,84.40
2019-03-21T00:37:27.153Z,84.50
2019-03-21T00:38:32.720Z,84.40
2019-03-21T00:39:38.325Z,84.40
2019-03-21T00:40:45.105Z,84.50
2019-03-21T00:41:50.757Z,84.40
2019-03-21T00:42:56.485Z,84.50
2019-03-21T00:44:02.226Z,84.50
2019-03-21T00:45:08.810Z,84.40
2019-03-21T00:46:14.399Z,84.40
2019-03-21T00:47:20.087Z,84.20
2019-03-21T00:48:25.622Z,84.30
2019-03-21T00:49:31.234Z,84.30
2019-03-21T00:50:36.980Z,84.20
2019-03-21T00:51:42.612Z,84.40
2019-03-21T00:52:49.897Z,84.80
2019-03-21T00:53:58.248Z,84.70
2019-03-21T00:55:03.825Z,84.70
2019-03-21T00:56:09.421Z,84.30
2019-03-21T00:57:15.069Z,84.30
2019-03-21T00:58:20.616Z,84.40
2019-03-21T00:59:26.260Z,84.80
2019-03-21T01:00:38.057Z,85.10
2019-03-21T01:01:43.616Z,85.50
2019-03-21T01:02:49.165Z,85.70
2019-03-21T01:03:55.014Z,85.80
2019-03-21T01:05:00.995Z,86.00
2019-03-21T01:06:06.660Z,85.90
2019-03-21T01:07:12.569Z,86.40
2019-03-21T01:08:18.229Z,86.20
2019-03-21T01:09:23.855Z,86.20
2019-03-21T01:10:29.479Z,86.30
2019-03-21T01:11:35.206Z,86.40
2019-03-21T01:12:44.849Z,86.40
2019-03-21T01:13:50.522Z,86.50
2019-03-21T01:14:56.156Z,86.60
2019-03-21T01:16:02.847Z,86.80
2019-03-21T01:17:09.766Z,87.00
2019-03-21T01:18:15.426Z,86.90
2019-03-21T01:19:21.023Z,87.00
2019-03-21T01:20:26.910Z,86.90
2019-03-21T01:21:32.592Z,87.10
2019-03-21T01:22:38.137Z,87.20
2019-03-21T01:23:43.745Z,87.20
2019-03-21T01:24:49.338Z,87.20
2019-03-21T01:25:55.836Z,87.10
2019-03-21T01:27:01.471Z,87.00
2019-03-21T01:28:07.105Z,86.90
2019-03-21T01:29:15.343Z,87.00
2019-03-21T01:30:20.116Z,87.10
2019-03-21T01:31:25.666Z,87.10
2019-03-21T01:32:31.206Z,87.00
2019-03-21T01:33:37.804Z,86.90
2019-03-21T01:34:43.468Z,87.10
2019-03-21T01:35:49.021Z,86.90
2019-03-21T01:36:54.760Z,87.00
2019-03-21T01:38:00.381Z,86.90
2019-03-21T01:39:07.420Z,86.80
2019-03-21T01:40:15.781Z,86.80
2019-03-21T01:41:22.473Z,86.80
2019-03-21T01:42:29.084Z,87.00
2019-03-21T01:43:34.640Z,87.00
2019-03-21T01:44:41.220Z,87.20
2019-03-21T01:45:46.987Z,87.30
2019-03-21T01:46:52.629Z,87.40
2019-03-21T01:47:58.223Z,87.10
2019-03-21T01:49:03.848Z,87.00
2019-03-21T01:50:10.388Z,86.90
2019-03-21T01:51:16.066Z,86.90
2019-03-21T01:52:22.777Z,86.80
2019-03-21T01:53:28.415Z,86.70
2019-03-21T01:54:34.044Z,86.80
2019-03-21T01:55:39.661Z,86.70
2019-03-21T01:56:45.210Z,86.80
2019-03-21T01:57:51.183Z,86.60
2019-03-21T01:58:56.850Z,86.60
2019-03-21T02:00:02.468Z,86.40
2019-03-21T02:01:09.031Z,86.40
2019-03-21T02:02:14.759Z,86.20
2019-03-21T02:03:20.366Z,86.10
2019-03-21T02:04:26.044Z,86.30
2019-03-21T02:05:31.674Z,86.60
2019-03-21T02:06:37.253Z,86.60
2019-03-21T02:07:42.822Z,86.70
2019-03-21T02:08:48.522Z,86.90
2019-03-21T02:09:54.135Z,87.30
2019-03-21T02:10:59.731Z,87.20
2019-03-21T02:12:05.726Z,86.90
2019-03-21T02:13:11.394Z,87.00
2019-03-21T02:14:17.007Z,87.10
2019-03-21T02:15:22.578Z,87.30
2019-03-21T02:16:28.206Z,87.70
2019-03-21T02:17:33.820Z,87.50
2019-03-21T02:18:39.456Z,87.20
2019-03-21T02:19:46.180Z,87.20
2019-03-21T02:20:54.235Z,87.20
2019-03-21T02:21:59.945Z,86.90
2019-03-21T02:23:05.641Z,86.80
2019-03-21T02:24:11.464Z,87.00
2019-03-21T02:25:22.335Z,86.90
2019-03-21T02:26:27.960Z,86.90
2019-03-21T02:27:33.512Z,86.90
2019-03-21T02:28:40.184Z,86.80
2019-03-21T02:29:45.713Z,86.70
2019-03-21T02:30:51.333Z,86.80
2019-03-21T02:31:57.055Z,87.10
2019-03-21T02:33:06.112Z,87.20
2019-03-21T02:34:11.750Z,87.20
2019-03-21T02:35:17.391Z,87.40
2019-03-21T02:36:23.041Z,87.40
2019-03-21T02:37:28.857Z,87.60
2019-03-21T02:38:36.464Z,87.60
2019-03-21T02:39:42.061Z,87.80
2019-03-21T02:40:47.709Z,88.10
2019-03-21T02:41:53.272Z,88.30
2019-03-21T02:42:59.301Z,88.30
2019-03-21T02:44:04.976Z,88.70
2019-03-21T02:45:11.770Z,88.90
2019-03-21T02:46:17.401Z,89.10
2019-03-21T02:47:22.953Z,89.10
2019-03-21T02:48:28.521Z,89.20
2019-03-21T02:49:34.246Z,89.20
2019-03-21T02:50:39.931Z,89.20
2019-03-21T02:51:45.589Z,89.40
2019-03-21T02:52:51.328Z,89.30
2019-03-21T02:53:56.888Z,89.30
2019-03-21T02:55:02.583Z,89.10
2019-03-21T02:56:09.834Z,89.30
2019-03-21T02:57:15.437Z,89.10
2019-03-21T02:58:20.993Z,89.00
2019-03-21T02:59:26.616Z,88.90
2019-03-21T03:00:32.886Z,89.00
2019-03-21T03:01:38.562Z,89.10
2019-03-21T03:02:45.303Z,89.20
2019-03-21T03:03:53.155Z,89.10
2019-03-21T03:04:58.825Z,89.10
2019-03-21T03:06:04.449Z,89.10
2019-03-21T03:07:11.182Z,89.20
2019-03-21T03:08:16.978Z,89.10
2019-03-21T03:09:22.873Z,89.10
2019-03-21T03:10:31.536Z,89.10
2019-03-21T03:11:37.201Z,89.30
2019-03-21T03:12:42.722Z,89.50
2019-03-21T03:13:49.076Z,89.60
2019-03-21T03:14:54.757Z,89.30
2019-03-21T03:16:00.315Z,89.40
2019-03-21T03:17:05.880Z,89.50
2019-03-21T03:18:11.705Z,89.50
2019-03-21T03:19:17.629Z,89.20
2019-03-21T03:20:23.349Z,89.30
2019-03-21T03:21:28.902Z,89.40
2019-03-21T03:22:34.447Z,89.30
2019-03-21T03:23:39.992Z,89.60
2019-03-21T03:24:45.632Z,89.30
2019-03-21T03:25:51.648Z,89.10
2019-03-21T03:26:57.565Z,89.30
2019-03-21T03:28:06.266Z,89.30
2019-03-21T03:29:11.869Z,89.20
2019-03-21T03:30:20.304Z,89.10
2019-03-21T03:31:25.916Z,89.30
2019-03-21T03:32:31.557Z,89.50
2019-03-21T03:33:37.192Z,89.40
2019-03-21T03:34:42.902Z,89.50
2019-03-21T03:35:49.444Z,89.50
2019-03-21T03:36:55.070Z,89.60
2019-03-21T03:38:00.673Z,89.70
2019-03-21T03:39:08.129Z,89.70
2019-03-21T03:40:16.506Z,89.80
2019-03-21T03:41:22.101Z,89.80
2019-03-21T03:42:27.684Z,89.80
2019-03-21T03:43:33.290Z,89.90
2019-03-21T03:44:38.862Z,90.00
2019-03-21T03:45:44.465Z,90.00
2019-03-21T03:46:50.023Z,90.00
2019-03-21T03:47:55.625Z,90.10
2019-03-21T03:49:03.982Z,90.00
2019-03-21T03:50:10.094Z,89.90
2019-03-21T03:51:15.775Z,89.90
2019-03-21T03:52:21.557Z,90.00
2019-03-21T03:53:27.279Z,90.00
2019-03-21T03:54:32.895Z,90.00
2019-03-21T03:55:38.679Z,89.90
2019-03-21T03:56:45.392Z,89.70
2019-03-21T03:57:51.316Z,89.70
2019-03-21T03:58:57.754Z,89.80
2019-03-21T04:00:04.450Z,89.70
2019-03-21T04:01:10.114Z,89.60
2019-03-21T04:02:15.652Z,89.50
2019-03-21T04:03:21.319Z,89.40
2019-03-21T04:04:27.374Z,89.20
2019-03-21T04:05:32.923Z,89.10
2019-03-21T04:06:38.553Z,88.90
2019-03-21T04:07:44.225Z,89.00
2019-03-21T04:08:49.867Z,89.10
2019-03-21T04:09:55.531Z,89.30
2019-03-21T04:11:01.176Z,89.60
2019-03-21T04:12:07.337Z,89.60
2019-03-21T04:13:12.973Z,89.80
2019-03-21T04:14:18.713Z,90.00
2019-03-21T04:15:25.236Z,90.20
2019-03-21T04:16:30.877Z,90.10
2019-03-21T04:17:37.532Z,90.10
2019-03-21T04:18:43.188Z,90.00
2019-03-21T04:19:48.890Z,90.00
2019-03-21T04:20:54.924Z,90.10
2019-03-21T04:22:00.569Z,90.00
2019-03-21T04:23:06.182Z,90.00
2019-03-21T04:24:11.840Z,89.80
2019-03-21T04:25:20.572Z,89.90
2019-03-21T04:26:28.515Z,90.00
2019-03-21T04:27:35.358Z,90.00
2019-03-21T04:28:41.399Z,90.00
2019-03-21T04:29:46.936Z,90.10
2019-03-21T04:30:52.475Z,90.20
2019-03-21T04:31:58.088Z,90.20
2019-03-21T04:33:03.653Z,90.10
2019-03-21T04:34:09.761Z,90.20
2019-03-21T04:35:15.357Z,90.20
2019-03-21T04:36:22.077Z,90.20
2019-03-21T04:37:27.720Z,90.20
2019-03-21T04:38:34.641Z,90.20
2019-03-21T04:39:40.237Z,90.20
2019-03-21T04:40:45.788Z,90.20
2019-03-21T04:41:51.458Z,90.10
2019-03-21T04:42:57.096Z,90.10
2019-03-21T04:44:02.652Z,90.10
2019-03-21T04:45:15.360Z,90.20
2019-03-21T04:46:20.984Z,90.10
2019-03-21T04:47:26.529Z,90.10
2019-03-21T04:48:32.066Z,90.20
2019-03-21T04:49:37.677Z,90.10
2019-03-21T04:50:43.292Z,90.10
2019-03-21T04:51:48.952Z,90.20
2019-03-21T04:52:54.525Z,90.20
2019-03-21T04:54:00.417Z,90.30
2019-03-21T04:55:07.154Z,90.10
2019-03-21T04:56:12.719Z,90.10
2019-03-21T04:57:18.772Z,90.10
2019-03-21T04:58:24.346Z,90.10
2019-03-21T04:59:29.933Z,90.20
2019-03-21T05:00:36.214Z,90.30
2019-03-21T05:01:41.825Z,90.20
2019-03-21T05:02:47.493Z,90.20
2019-03-21T05:03:53.210Z,90.20
2019-03-21T05:04:58.817Z,90.20
2019-03-21T05:06:04.534Z,90.10
2019-03-21T05:07:10.172Z,90.10
2019-03-21T05:08:15.854Z,90.10
2019-03-21T05:09:21.638Z,90.20
2019-03-21T05:10:27.232Z,90.30
2019-03-21T05:11:32.887Z,90.40
2019-03-21T05:12:38.514Z,90.40
2019-03-21T05:13:44.166Z,90.40
2019-03-21T05:14:49.784Z,90.30
2019-03-21T05:15:55.424Z,90.40
2019-03-21T05:17:01.047Z,90.50
2019-03-21T05:18:09.763Z,90.40
2019-03-21T05:19:15.396Z,90.40
2019-03-21T05:20:23.304Z,90.40
2019-03-21T05:21:29.224Z,90.30
2019-03-21T05:22:36.839Z,90.30
2019-03-21T05:23:43.484Z,90.20
2019-03-21T05:24:49.026Z,90.20
2019-03-21T05:25:54.905Z,90.30
2019-03-21T05:27:00.773Z,90.30
2019-03-21T05:28:06.384Z,90.30
2019-03-21T05:29:13.441Z,90.40
2019-03-21T05:30:25.369Z,90.30
2019-03-21T05:31:32.731Z,90.30
2019-03-21T05:32:38.345Z,90.30
2019-03-21T05:33:43.913Z,90.40
2019-03-21T05:34:49.564Z,90.50
2019-03-21T05:35:55.165Z,90.40
2019-03-21T05:37:02.419Z,90.30
2019-03-21T05:38:08.373Z,90.10
2019-03-21T05:39:15.023Z,89.80
2019-03-21T05:40:20.867Z,88.90
2019-03-21T05:41:26.422Z,87.80
2019-03-21T05:42:32.061Z,87.10
2019-03-21T05:43:58.392Z,86.20
2019-03-21T05:45:04.030Z,85.20
2019-03-21T05:46:09.721Z,84.00
2019-03-21T05:47:15.356Z,83.10
2019-03-21T05:48:20.928Z,82.10
2019-03-21T05:49:26.601Z,81.10
2019-03-21T05:50:32.243Z,79.70
2019-03-21T05:51:37.983Z,78.50
2019-03-21T05:52:43.581Z,76.60
2019-03-21T05:53:49.283Z,75.50
2019-03-21T05:54:54.910Z,73.20
2019-03-21T05:56:00.445Z,71.40
2019-03-21T05:57:06.062Z,69.10
2019-03-21T05:58:11.729Z,67.60
2019-03-21T05:59:17.348Z,64.90
2019-03-21T06:00:26.541Z,63.10
2019-03-21T06:01:32.194Z,61.30
2019-03-21T06:02:37.946Z,59.20
2019-03-21T06:03:50.642Z,56.80
2019-03-21T06:04:56.296Z,54.60
2019-03-21T06:06:32.533Z,53.00
2019-03-21T06:07:51.580Z,51.50
2019-03-21T06:08:57.340Z,49.30
2019-03-21T06:10:03.008Z,46.60
2019-03-21T06:11:08.664Z,46.10
2019-03-21T06:12:14.706Z,46.10
2019-03-21T06:13:20.437Z,45.20
2019-03-21T06:14:26.314Z,44.70
2019-03-21T06:15:33.365Z,43.10
2019-03-21T06:16:39.056Z,41.20
2019-03-21T06:17:46.331Z,39.50
2019-03-21T06:19:17.737Z,38.80
2019-03-21T06:20:48.429Z,38.30
2019-03-21T06:22:10.198Z,37.50
2019-03-21T06:23:49.785Z,36.70
2019-03-21T06:25:15.683Z,36.10
2019-03-21T06:26:41.494Z,34.30
2019-03-21T06:27:47.096Z,34.30
2019-03-21T06:28:52.760Z,33.10
2019-03-21T06:29:58.514Z,32.70
2019-03-21T06:31:04.074Z,32.50
2019-03-21T06:32:09.821Z,31.90
2019-03-21T06:33:15.444Z,31.20
2019-03-21T06:34:21.003Z,30.70
2019-03-21T06:35:27.772Z,30.00
2019-03-21T06:36:34.773Z,29.30
2019-03-21T06:37:40.449Z,29.00
2019-03-21T06:38:46.160Z,28.40
2019-03-21T06:39:52.089Z,28.20
2019-03-21T06:40:57.766Z,28.50
2019-03-21T06:42:03.385Z,28.30
2019-03-21T06:43:08.935Z,27.80
2019-03-21T06:44:14.570Z,27.50
2019-03-21T06:45:23.025Z,27.10
2019-03-21T06:46:28.580Z,26.80
2019-03-21T06:47:34.218Z,26.70
2019-03-21T06:48:51.061Z,26.50
2019-03-21T06:50:07.425Z,26.20
2019-03-21T06:51:24.120Z,26.20
2019-03-21T06:52:40.496Z,25.60
2019-03-21T06:53:56.994Z,25.40
2019-03-21T06:55:13.645Z,25.30
2019-03-21T06:56:29.960Z,25.00
2019-03-21T06:57:47.280Z,24.40
2019-03-21T06:59:03.648Z,24.20
2019-03-21T07:00:20.820Z,23.90
2019-03-21T07:01:37.960Z,23.60
2019-03-21T07:02:54.728Z,23.20
2019-03-21T07:04:10.153Z,22.90
2019-03-21T07:05:26.889Z,22.60
2019-03-21T07:06:43.636Z,22.40
2019-03-21T07:08:00.084Z,22.20
2019-03-21T07:09:17.112Z,21.90
2019-03-21T07:10:33.830Z,21.50
2019-03-21T07:11:50.370Z,20.80
2019-03-21T07:13:07.421Z,21.60
2019-03-21T07:14:23.941Z,21.60
2019-03-21T07:15:40.342Z,21.60
2019-03-21T07:17:00.728Z,21.60
2019-03-21T07:18:16.185Z,21.00
2019-03-21T07:19:32.628Z,19.30
2019-03-21T07:20:49.738Z,20.40
2019-03-21T07:22:06.119Z,20.60
2019-03-21T07:23:21.917Z,19.80
2019-03-21T07:24:38.702Z,20.40
2019-03-21T07:25:55.337Z,20.50
2019-03-21T07:27:11.707Z,20.50
2019-03-21T07:28:28.208Z,21.10
2019-03-21T07:29:43.992Z,21.10
2019-03-21T07:31:00.417Z,20.60
2019-03-21T07:32:17.122Z,20.40
2019-03-21T07:33:33.761Z,19.50
2019-03-21T07:34:50.422Z,19.80
2019-03-21T07:36:06.994Z,20.70
2019-03-21T07:37:23.649Z,20.70
2019-03-21T07:38:40.070Z,20.70
2019-03-21T07:39:57.208Z,20.70
2019-03-21T07:41:13.877Z,20.70
2019-03-21T07:42:30.252Z,20.80
2019-03-21T07:43:46.645Z,20.50
2019-03-21T07:45:02.969Z,20.10
2019-03-21T07:46:19.999Z,20.30
2019-03-21T07:47:36.373Z,20.00
2019-03-21T07:48:52.837Z,20.50
2019-03-21T07:50:09.971Z,20.30
2019-03-21T07:51:26.805Z,20.40
2019-03-21T07:52:43.316Z,20.10
2019-03-21T07:53:59.936Z,20.20
2019-03-21T07:55:17.219Z,20.00
2019-03-21T07:56:33.775Z,19.30
2019-03-21T07:57:50.369Z,18.90
2019-03-21T07:59:07.441Z,18.90
2019-03-21T08:00:24.022Z,18.80
2019-03-21T08:01:40.540Z,19.00
2019-03-21T08:02:57.272Z,18.90
2019-03-21T08:04:14.022Z,18.70
2019-03-21T08:05:39.855Z,18.70
2019-03-21T08:06:49.358Z,18.50
2019-03-21T08:08:06.497Z,17.90
2019-03-21T08:09:22.869Z,17.10
2019-03-21T08:10:39.509Z,17.40
2019-03-21T08:11:56.514Z,17.30
2019-03-21T08:13:12.960Z,17.40
2019-03-21T08:14:29.429Z,17.60
2019-03-21T08:15:45.725Z,17.30
2019-03-21T08:17:02.313Z,17.10
2019-03-21T08:18:18.967Z,17.10
2019-03-21T08:19:35.349Z,17.10
2019-03-21T08:20:58.656Z,16.80
2019-03-21T08:22:10.668Z,16.80
2019-03-21T08:23:26.233Z,15.60
2019-03-21T08:26:27.124Z,16.50
2019-03-21T08:28:03.002Z,17.30
2019-03-21T08:29:19.358Z,17.80
2019-03-21T08:30:35.882Z,17.80
2019-03-21T08:31:53.062Z,17.80
2019-03-21T08:33:09.509Z,17.90
2019-03-21T08:34:26.760Z,16.90
2019-03-21T08:35:43.834Z,17.70
2019-03-21T08:37:00.607Z,18.00
2019-03-21T08:38:17.617Z,18.00
2019-03-21T08:39:37.133Z,18.30
2019-03-21T08:40:53.660Z,17.80
2019-03-21T08:42:10.340Z,17.40
2019-03-21T08:43:26.797Z,17.30
2019-03-21T08:44:44.089Z,16.70
2019-03-21T08:46:00.726Z,15.90
2019-03-21T08:47:17.185Z,18.10
2019-03-21T08:48:33.849Z,18.60
2019-03-21T08:49:50.584Z,18.30
2019-03-21T08:51:08.925Z,18.60
2019-03-21T08:52:25.492Z,19.10
2019-03-21T08:53:42.109Z,19.60
2019-03-21T08:54:59.157Z,20.30
2019-03-21T08:56:16.370Z,21.10
2019-03-21T08:57:34.490Z,21.50
2019-03-21T08:58:50.927Z,20.70
2019-03-21T09:00:07.340Z,21.40
2019-03-21T09:01:23.984Z,20.50
2019-03-21T09:02:40.793Z,20.30
2019-03-21T09:03:57.428Z,20.20
2019-03-21T09:05:13.892Z,21.10
2019-03-21T09:06:30.233Z,21.00
2019-03-21T09:07:46.756Z,20.60
2019-03-21T09:09:03.743Z,19.90
2019-03-21T09:10:20.103Z,21.00
2019-03-21T09:11:36.862Z,20.70
2019-03-21T09:12:53.365Z,20.00
2019-03-21T09:14:09.993Z,19.20
2019-03-21T09:15:26.745Z,18.90
2019-03-21T09:16:43.172Z,18.10
2019-03-21T09:18:00.835Z,18.60
2019-03-21T09:19:18.352Z,18.70
2019-03-21T09:20:34.672Z,18.40
2019-03-21T09:21:51.718Z,18.40
2019-03-21T09:23:08.136Z,17.40
2019-03-21T09:24:23.642Z,17.70
2019-03-21T09:25:47.982Z,18.10
2019-03-21T09:27:12.460Z,17.80
2019-03-21T09:28:29.059Z,16.90
2019-03-21T09:29:53.381Z,18.20
2019-03-21T09:31:04.748Z,18.20
2019-03-21T09:32:21.198Z,18.10
2019-03-21T09:33:37.767Z,19.10
2019-03-21T09:34:54.605Z,18.40
2019-03-21T09:36:11.188Z,19.20
2019-03-21T09:37:30.410Z,19.60
2019-03-21T09:38:46.821Z,18.70
2019-03-21T09:40:02.274Z,19.20
2019-03-21T09:41:26.745Z,20.30
2019-03-21T09:42:43.309Z,20.50
2019-03-21T09:43:58.720Z,19.90
2019-03-21T09:45:23.167Z,20.00
2019-03-21T09:46:50.141Z,19.00
2019-03-21T09:47:58.061Z,19.20
2019-03-21T09:49:14.710Z,19.60
2019-03-21T09:50:30.143Z,20.40
2019-03-21T09:51:54.584Z,20.50
2019-03-21T09:53:11.168Z,21.70
2019-03-21T09:54:28.869Z,21.10
2019-03-21T09:55:46.472Z,21.40
2019-03-21T09:57:03.249Z,21.30
2019-03-21T09:58:19.807Z,20.80
2019-03-21T09:59:36.533Z,20.10
2019-03-21T10:00:52.963Z,19.60
2019-03-21T10:02:08.489Z,19.40
2019-03-21T10:03:26.834Z,19.10
2019-03-21T10:04:43.728Z,19.40
2019-03-21T10:06:00.238Z,19.30
2019-03-21T10:07:17.171Z,19.40
2019-03-21T10:08:34.085Z,19.50
2019-03-21T10:09:50.573Z,19.00
2019-03-21T10:11:08.973Z,19.30
2019-03-21T10:12:24.553Z,19.40
2019-03-21T10:13:40.868Z,19.80
2019-03-21T10:14:56.281Z,20.00
2019-03-21T10:16:20.656Z,19.80
2019-03-21T10:17:37.734Z,20.20
2019-03-21T10:18:54.231Z,20.20
2019-03-21T10:20:10.633Z,20.50
2019-03-21T10:21:26.837Z,21.10
2019-03-21T10:22:43.220Z,21.30
2019-03-21T10:23:59.621Z,21.80
2019-03-21T10:25:16.075Z,21.10
2019-03-21T10:26:32.492Z,21.60
2019-03-21T10:27:49.566Z,22.40
2019-03-21T10:29:06.064Z,22.00
2019-03-21T10:30:22.725Z,21.60
2019-03-21T10:31:39.419Z,21.60
2019-03-21T10:32:56.446Z,21.70
2019-03-21T10:34:12.933Z,22.10
2019-03-21T10:35:32.542Z,22.30
2019-03-21T10:36:48.661Z,22.40
2019-03-21T10:38:08.176Z,22.40
2019-03-21T10:39:24.694Z,22.40
2019-03-21T10:40:41.054Z,22.70
2019-03-21T10:41:57.526Z,22.00
2019-03-21T10:43:13.845Z,21.80
2019-03-21T10:44:30.328Z,22.50
2019-03-21T10:45:48.796Z,23.00
2019-03-21T10:47:32.177Z,23.10
2019-03-21T10:48:48.533Z,24.20
2019-03-21T10:50:06.913Z,23.90
2019-03-21T10:51:26.989Z,24.30
2019-03-21T10:52:43.801Z,24.40
2019-03-21T10:54:00.746Z,25.60
2019-03-21T10:55:16.285Z,25.50
2019-03-21T10:56:40.701Z,25.30
2019-03-21T10:57:57.808Z,25.30
2019-03-21T10:59:14.579Z,25.40
2019-03-21T11:00:31.456Z,25.10
2019-03-21T11:01:47.777Z,25.20
2019-03-21T11:03:05.098Z,25.40
2019-03-21T11:04:21.485Z,25.70
2019-03-21T11:05:38.749Z,26.20
2019-03-21T11:06:55.149Z,26.20
2019-03-21T11:08:11.583Z,26.90
2019-03-21T11:09:29.651Z,27.40
2019-03-21T11:10:47.307Z,27.50
2019-03-21T11:12:04.597Z,27.60
2019-03-21T11:13:21.457Z,27.60
2019-03-21T11:14:39.117Z,27.70
2019-03-21T11:15:55.613Z,28.00
2019-03-21T11:17:12.097Z,27.90
2019-03-21T11:18:35.920Z,28.30
2019-03-21T11:19:47.878Z,28.50
2019-03-21T11:21:04.435Z,28.70
2019-03-21T11:22:21.224Z,28.90
2019-03-21T11:23:38.338Z,28.50
2019-03-21T11:24:54.921Z,29.00
2019-03-21T11:26:12.208Z,29.50
2019-03-21T11:27:28.516Z,29.70
2019-03-21T11:28:44.869Z,29.60
2019-03-21T11:30:01.237Z,29.50
2019-03-21T11:31:17.883Z,29.20
2019-03-21T11:32:35.156Z,29.50
2019-03-21T11:33:51.861Z,29.30
2019-03-21T11:35:07.346Z,29.10
2019-03-21T11:36:24.369Z,29.10
2019-03-21T11:37:41.172Z,29.40
2019-03-21T11:38:58.066Z,29.30
2019-03-21T11:40:14.522Z,28.60
2019-03-21T11:41:31.219Z,28.00
2019-03-21T11:42:48.459Z,28.00
2019-03-21T11:44:05.144Z,27.10
2019-03-21T11:45:23.051Z,26.50
2019-03-21T11:46:39.579Z,26.40
2019-03-21T11:47:55.960Z,26.70
2019-03-21T11:49:12.521Z,27.10
2019-03-21T11:50:28.896Z,26.60
2019-03-21T11:51:45.384Z,25.90
2019-03-21T11:53:02.903Z,26.30
2019-03-21T11:54:20.115Z,26.60
2019-03-21T11:55:36.860Z,27.10
2019-03-21T11:56:54.065Z,27.40
2019-03-21T11:58:11.003Z,27.80
2019-03-21T11:59:38.404Z,28.00
2019-03-21T12:00:45.789Z,27.10
2019-03-21T12:02:02.956Z,26.90
2019-03-21T12:03:19.950Z,26.90
2019-03-21T12:04:36.480Z,27.20
2019-03-21T12:05:53.025Z,27.30
2019-03-21T12:07:09.507Z,27.20
2019-03-21T12:08:26.389Z,27.10
2019-03-21T12:09:43.078Z,26.70
2019-03-21T12:11:00.037Z,26.30
2019-03-21T12:12:17.061Z,26.40
2019-03-21T12:13:33.831Z,26.50
2019-03-21T12:14:51.016Z,26.70
2019-03-21T12:16:07.534Z,27.10
2019-03-21T12:17:24.605Z,27.00
2019-03-21T12:18:41.110Z,27.00
2019-03-21T12:19:58.716Z,26.70
2019-03-21T12:21:15.713Z,26.90
2019-03-21T12:22:32.910Z,26.90
2019-03-21T12:23:49.569Z,26.90
2019-03-21T12:25:06.768Z,26.90
2019-03-21T12:26:24.074Z,27.10
2019-03-21T12:27:41.204Z,27.20
2019-03-21T12:28:57.817Z,26.70
2019-03-21T12:30:14.215Z,26.50
2019-03-21T12:31:31.480Z,26.40
2019-03-21T12:32:50.963Z,26.20
2019-03-21T12:34:07.589Z,26.10
2019-03-21T12:35:24.833Z,25.80
2019-03-21T12:36:41.444Z,25.30
2019-03-21T12:37:58.025Z,25.70
2019-03-21T12:39:14.536Z,26.00
2019-03-21T12:40:31.280Z,25.90
2019-03-21T12:41:48.440Z,25.60
2019-03-21T12:43:04.936Z,25.80
2019-03-21T12:44:21.606Z,25.20
2019-03-21T12:45:38.008Z,25.50
2019-03-21T12:46:54.361Z,25.90
2019-03-21T12:48:10.800Z,25.80
2019-03-21T12:49:28.023Z,26.00
2019-03-21T12:50:44.515Z,25.90
2019-03-21T12:52:01.040Z,26.00
2019-03-21T12:53:17.565Z,25.90
2019-03-21T12:54:34.279Z,25.70
2019-03-21T12:55:50.757Z,25.30
2019-03-21T12:57:07.381Z,25.40
2019-03-21T12:58:23.689Z,25.70
2019-03-21T12:59:40.253Z,25.50
2019-03-21T13:00:56.607Z,26.00
2019-03-21T13:02:12.981Z,26.80
2019-03-21T13:03:29.869Z,26.60
2019-03-21T13:04:46.554Z,26.60
2019-03-21T13:06:02.990Z,26.90
2019-03-21T13:07:19.933Z,26.70
2019-03-21T13:08:37.385Z,26.80
2019-03-21T13:09:53.905Z,27.40
2019-03-21T13:11:10.865Z,27.00
2019-03-21T13:12:27.487Z,27.20
2019-03-21T13:13:43.818Z,26.90
2019-03-21T13:15:00.858Z,27.20
2019-03-21T13:16:17.255Z,27.10
2019-03-21T13:17:34.485Z,27.30
2019-03-21T13:18:51.125Z,27.40
2019-03-21T13:20:06.786Z,27.40
2019-03-21T13:21:31.260Z,27.30
2019-03-21T13:22:52.943Z,27.70
2019-03-21T13:24:07.540Z,28.30
2019-03-21T13:25:24.331Z,28.00
2019-03-21T13:26:40.835Z,27.70
2019-03-21T13:27:57.531Z,27.70
2019-03-21T13:29:14.100Z,27.50
2019-03-21T13:30:31.315Z,27.80
2019-03-21T13:31:48.324Z,27.70
2019-03-21T13:33:05.292Z,27.80
2019-03-21T13:34:21.867Z,27.70
2019-03-21T13:35:39.928Z,27.50
2019-03-21T13:36:57.992Z,27.50
2019-03-21T13:38:14.418Z,27.60
2019-03-21T13:39:30.975Z,27.30
2019-03-21T13:40:47.497Z,27.10
2019-03-21T13:42:04.082Z,27.10
2019-03-21T13:43:21.348Z,27.30
2019-03-21T13:44:38.607Z,27.40
2019-03-21T13:45:55.031Z,27.50
2019-03-21T13:47:11.576Z,27.10
2019-03-21T13:48:28.315Z,27.30
2019-03-21T13:49:45.133Z,27.70
2019-03-21T13:51:01.605Z,27.10
2019-03-21T13:52:18.060Z,27.00
2019-03-21T13:53:42.517Z,26.80
2019-03-21T13:55:18.938Z,27.40
2019-03-21T13:56:38.326Z,28.10
2019-03-21T13:57:55.476Z,27.90
2019-03-21T13:59:12.679Z,27.50
2019-03-21T14:00:29.231Z,27.50
2019-03-21T14:01:45.541Z,27.40
2019-03-21T14:03:02.070Z,27.30
2019-03-21T14:04:18.594Z,27.30
2019-03-21T14:05:35.249Z,27.10
2019-03-21T14:06:50.872Z,27.30
2019-03-21T14:08:15.244Z,27.20
2019-03-21T14:09:32.154Z,27.00
2019-03-21T14:10:48.557Z,27.10
2019-03-21T14:12:04.893Z,26.80
2019-03-21T14:13:21.630Z,27.10
2019-03-21T14:14:37.968Z,26.90
2019-03-21T14:15:57.727Z,26.70
2019-03-21T14:17:21.834Z,26.60
2019-03-21T14:18:32.370Z,26.50
2019-03-21T14:19:49.268Z,26.70
2019-03-21T14:21:06.145Z,27.60
2019-03-21T14:22:25.619Z,27.40
2019-03-21T14:23:49.972Z,27.30
2019-03-21T14:25:07.180Z,27.50
2019-03-21T14:26:23.577Z,27.50
2019-03-21T14:27:39.993Z,27.50
2019-03-21T14:28:56.665Z,27.50
2019-03-21T14:30:13.105Z,27.50
2019-03-21T14:31:29.909Z,27.90
2019-03-21T14:32:46.929Z,28.10
2019-03-21T14:34:03.284Z,28.00
2019-03-21T14:35:21.312Z,27.80
2019-03-21T14:36:37.669Z,28.10
2019-03-21T14:37:54.155Z,28.50
2019-03-21T14:39:11.174Z,28.10
2019-03-21T14:40:28.414Z,28.30
2019-03-21T14:41:45.340Z,28.20
2019-03-21T14:43:01.773Z,28.50
2019-03-21T14:44:18.247Z,28.10
2019-03-21T14:45:35.161Z,28.10
2019-03-21T14:46:52.539Z,28.40
2019-03-21T14:48:08.879Z,28.70
2019-03-21T14:49:26.144Z,28.80
2019-03-21T14:50:42.405Z,28.60
2019-03-21T14:52:00.639Z,28.30
2019-03-21T14:53:28.361Z,28.50
2019-03-21T14:54:36.724Z,28.20
2019-03-21T14:55:53.141Z,27.90
2019-03-21T14:57:09.564Z,28.30
2019-03-21T14:58:26.634Z,28.20
2019-03-21T14:59:43.084Z,28.10
2019-03-21T15:01:00.482Z,27.80
2019-03-21T15:02:17.758Z,27.80
2019-03-21T15:03:34.401Z,28.00
2019-03-21T15:04:50.862Z,28.00
2019-03-21T15:06:08.101Z,28.20
2019-03-21T15:07:24.484Z,28.20
2019-03-21T15:08:41.817Z,28.10
2019-03-21T15:09:59.009Z,28.30
2019-03-21T15:11:17.181Z,28.20
2019-03-21T15:12:34.079Z,28.20
2019-03-21T15:13:51.671Z,27.90
2019-03-21T15:15:08.353Z,27.70
2019-03-21T15:16:25.159Z,27.70
2019-03-21T15:17:41.549Z,28.10
2019-03-21T15:18:58.418Z,28.10
2019-03-21T15:20:15.975Z,28.00
2019-03-21T15:21:32.772Z,27.80
2019-03-21T15:22:49.322Z,27.90
2019-03-21T15:24:05.777Z,27.70
2019-03-21T15:25:22.299Z,28.00
2019-03-21T15:26:39.008Z,28.10
2019-03-21T15:27:55.386Z,28.40
2019-03-21T15:29:11.968Z,28.00
2019-03-21T15:30:29.235Z,28.20
2019-03-21T15:31:45.512Z,28.40
2019-03-21T15:33:02.330Z,28.60